Middleton, Massachusetts
Current Conditions -  °F | °C
As of 5:53 PM on Saturday 25 Oct 2014 (Local Time) from KBVY Reporting Station
Clear Clear  
Wind Chill: 58°   Ceiling: Unl
Heat Index: 58°   Visibility: 10mi
Dew Point: 39°   Wind: 6mph
Humidity: 49%   Direction: 250°WSW
Pressure: 29.57"   Gusts: NA
Location:  42.6°N, 71.02°W
Report Text: KBVY 252153Z 25005KT 10SM CLR 14/04 A2957 RMK AO2 SLP008 T01440039
Loading
Personal Weather Stations






























Interactive Weather Map
Tropical Storm Tracking
New forecast layout! Learn more

10-Day Weather Forecast

Advertisements
Track Severe Weather on mobile